Time;durP1;ratioP1;P1;durP2;ratioP2;P2;SDS_P1;SDS_P2;PMS_P1;PMS_P2;Temp;Humidity;BMP_temperature;BMP_pressure;BME280_temperature;BME280_humidity;BME280_pressure;Samples;Min_cycle;Max_cycle;Signal;HPM_P1;HPM_P2
2022/09/20 00:01:24;;;;;;;7.50;5.35;;;;;;;11.49;100.00;98470.53;4376931;32;20064;-68
2022/09/20 00:03:53;;;;;;;7.97;5.90;;;;;;;11.17;100.00;98432.00;4339982;33;20340;-69
2022/09/20 00:06:23;;;;;;;7.93;4.53;;;;;;;11.06;100.00;98438.47;4352414;32;20032;-69
2022/09/20 00:08:50;;;;;;;7.12;5.00;;;;;;;11.15;100.00;98488.03;4353330;32;20912;-69
2022/09/20 00:11:19;;;;;;;6.43;4.95;;;;;;;11.06;100.00;98473.47;4354631;32;20070;-69
2022/09/20 00:13:48;;;;;;;8.68;5.15;;;;;;;11.07;100.00;98475.06;4330658;33;20076;-69
2022/09/20 00:16:23;;;;;;;12.00;6.03;;;;;;;11.03;100.00;98488.28;4322523;33;20052;-73
2022/09/20 00:18:52;;;;;;;7.03;4.70;;;;;;;10.89;100.00;98474.50;4324674;33;20033;-68
2022/09/20 00:21:22;;;;;;;7.00;4.53;;;;;;;11.01;100.00;98493.13;4339456;33;20062;-68
2022/09/20 00:23:49;;;;;;;7.25;4.00;;;;;;;10.93;100.00;98496.34;4322855;33;20041;-69
2022/09/20 00:26:16;;;;;;;6.32;4.60;;;;;;;10.76;100.00;98499.25;4321928;33;20068;-69
2022/09/20 00:28:42;;;;;;;10.95;4.80;;;;;;;10.75;100.00;98494.91;4325036;33;20372;-71
2022/09/20 00:31:10;;;;;;;6.55;4.82;;;;;;;10.07;100.00;98414.94;4323760;33;20062;-70
2022/09/20 00:36:21;;;;;;;7.75;4.87;;;;;;;10.42;100.00;98453.87;4338736;33;20088;-71
2022/09/20 00:38:48;;;;;;;5.57;4.80;;;;;;;10.52;100.00;98502.38;4333434;33;20370;-70
2022/09/20 00:41:15;;;;;;;5.57;4.60;;;;;;;10.49;100.00;98497.50;4345123;32;20107;-69
2022/09/20 00:43:44;;;;;;;7.40;4.37;;;;;;;10.63;100.00;98511.31;4360794;32;20338;-71
2022/09/20 00:46:19;;;;;;;8.25;5.28;;;;;;;10.10;100.00;98473.59;4412344;32;20053;-69
2022/09/20 00:48:47;;;;;;;6.18;4.53;;;;;;;10.32;100.00;98518.38;4414102;32;20283;-70
2022/09/20 00:51:19;;;;;;;5.95;4.50;;;;;;;10.32;100.00;98510.31;4413957;32;20069;-69
2022/09/20 00:53:49;;;;;;;18.05;5.72;;;;;;;10.03;100.00;98435.34;4405428;32;20485;-69
2022/09/20 00:56:21;;;;;;;7.43;4.87;;;;;;;10.40;100.00;98504.44;4420706;32;20114;-69
2022/09/20 00:59:00;;;;;;;8.35;4.82;;;;;;;9.74;100.00;98422.28;4398766;32;20416;-69
2022/09/20 01:01:28;;;;;;;10.10;4.85;;;;;;;9.75;100.00;98472.28;4411514;32;20060;-72
2022/09/20 01:03:54;;;;;;;5.12;4.05;;;;;;;10.21;100.00;98500.56;4413336;32;20427;-69
2022/09/20 01:06:20;;;;;;;7.25;4.50;;;;;;;9.80;100.00;98507.28;4413806;32;20034;-69
2022/09/20 01:08:51;;;;;;;8.02;5.25;;;;;;;9.98;100.00;98503.38;4414033;32;20042;-69
2022/09/20 01:11:17;;;;;;;8.93;4.30;;;;;;;9.98;100.00;98519.50;4367749;32;20059;-69
2022/09/20 01:13:43;;;;;;;7.40;4.78;;;;;;;9.73;100.00;98469.06;4366529;32;20043;-70
2022/09/20 01:16:13;;;;;;;6.37;4.90;;;;;;;10.02;100.00;98514.44;4367786;32;20047;-70
2022/09/20 01:18:40;;;;;;;8.40;4.35;;;;;;;9.64;100.00;98465.22;4368655;32;20043;-69
2022/09/20 01:21:08;;;;;;;7.93;4.75;;;;;;;9.90;100.00;98522.69;4368813;32;20024;-69
2022/09/20 01:23:41;;;;;;;8.13;5.03;;;;;;;9.86;100.00;98499.25;4366101;32;20048;-71
2022/09/20 01:26:29;;;;;;;7.12;4.78;;;;;;;9.94;100.00;98517.59;4338593;33;20074;-70
2022/09/20 01:29:01;;;;;;;6.55;4.60;;;;;;;9.69;100.00;98478.69;4355342;32;20136;-69
2022/09/20 01:31:33;;;;;;;13.27;5.80;;;;;;;9.73;100.00;98522.00;4366397;32;20019;-70
2022/09/20 01:34:10;;;;;;;8.32;5.30;;;;;;;9.64;100.00;98478.66;4367829;32;20195;-69
2022/09/20 01:36:51;;;;;;;10.45;5.15;;;;;;;9.93;100.00;98515.97;4367997;32;20160;-69
2022/09/20 01:39:32;;;;;;;7.35;4.53;;;;;;;9.93;100.00;98524.06;4365937;32;20044;-70
2022/09/20 01:42:06;;;;;;;7.50;4.60;;;;;;;9.71;100.00;98524.16;4368416;32;20024;-69
2022/09/20 01:44:36;;;;;;;6.22;4.35;;;;;;;9.27;100.00;98487.50;4383551;32;20035;-69
2022/09/20 01:47:10;;;;;;;5.62;4.80;;;;;;;9.52;100.00;98515.66;4379181;32;20456;-73
2022/09/20 01:49:51;;;;;;;9.25;5.20;;;;;;;9.24;100.00;98482.63;4381025;32;20081;-69
2022/09/20 01:52:23;;;;;;;10.07;5.10;;;;;;;9.19;100.00;98474.50;4372695;32;20053;-69
2022/09/20 01:55:12;;;;;;;7.95;5.07;;;;;;;9.57;100.00;98523.75;4364846;32;20334;-70
2022/09/20 01:57:56;;;;;;;6.40;4.43;;;;;;;9.40;100.00;98478.19;4358755;32;20036;-68
2022/09/20 02:00:29;;;;;;;7.80;5.32;;;;;;;10.04;100.00;98517.69;4362045;32;20163;-69
2022/09/20 02:03:18;;;;;;;7.65;4.57;;;;;;;10.09;100.00;98515.00;4383377;32;20043;-68
2022/09/20 02:06:23;;;;;;;6.43;4.65;;;;;;;9.78;100.00;98477.16;4375672;32;20352;-73
2022/09/20 02:09:04;;;;;;;5.30;4.70;;;;;;;9.70;100.00;98471.44;4382381;32;20413;-68
2022/09/20 02:11:51;;;;;;;6.10;5.15;;;;;;;10.03;100.00;98502.59;4358011;32;20844;-68
2022/09/20 02:14:41;;;;;;;7.62;5.03;;;;;;;10.11;100.00;98523.63;4353467;33;20110;-69
2022/09/20 02:17:22;;;;;;;10.35;5.70;;;;;;;10.10;100.00;98508.56;4338283;33;20055;-68
2022/09/20 02:20:16;;;;;;;6.93;5.03;;;;;;;10.04;100.00;98514.97;4347777;32;20024;-69
2022/09/20 02:23:01;;;;;;;9.68;5.78;;;;;;;10.20;100.00;98521.28;4349290;33;20048;-69
2022/09/20 02:25:33;;;;;;;6.72;5.12;;;;;;;10.25;100.00;98517.81;4342001;33;20426;-72
2022/09/20 02:28:25;;;;;;;12.07;5.15;;;;;;;9.91;100.00;98475.09;4353366;33;20031;-70
2022/09/20 02:31:10;;;;;;;7.18;5.60;;;;;;;10.28;100.00;98522.66;4366830;32;20031;-70
2022/09/20 02:33:51;;;;;;;8.73;6.03;;;;;;;9.75;100.00;98477.69;4367392;32;20056;-70
2022/09/20 02:36:40;;;;;;;7.37;5.47;;;;;;;9.76;100.00;98498.09;4367366;32;20040;-70
2022/09/20 02:39:23;;;;;;;9.27;6.10;;;;;;;9.38;100.00;98446.22;4372623;32;20051;-70
2022/09/20 02:42:18;;;;;;;12.55;6.87;;;;;;;9.95;100.00;98527.28;4396593;32;20031;-70
2022/09/20 02:45:17;;;;;;;6.97;6.15;;;;;;;9.89;100.00;98534.53;4403806;32;20039;-69
2022/09/20 02:47:43;;;;;;;6.97;5.50;;;;;;;9.87;100.00;98501.69;4400187;32;20064;-70
2022/09/20 02:50:40;;;;;;;13.93;6.55;;;;;;;9.70;100.00;98474.94;4415644;32;20046;-70
2022/09/20 02:53:34;;;;;;;9.07;7.12;;;;;;;10.05;100.00;98540.81;4416679;32;20132;-70
2022/09/20 02:56:31;;;;;;;7.85;5.00;;;;;;;9.87;100.00;98527.78;4428906;32;20060;-70
2022/09/20 02:59:09;;;;;;;9.82;5.32;;;;;;;9.97;100.00;98549.34;4433294;32;20092;-69
2022/09/20 03:01:56;;;;;;;6.60;4.95;;;;;;;9.92;100.00;98543.94;4433410;32;20107;-69
2022/09/20 03:04:37;;;;;;;5.40;4.62;;;;;;;9.84;100.00;98552.47;4422518;32;20041;-70
2022/09/20 03:07:45;;;;;;;5.80;4.60;;;;;;;9.88;100.00;98529.41;4431526;32;20038;-70
2022/09/20 03:10:24;;;;;;;5.25;3.80;;;;;;;9.86;100.00;98542.28;4394732;32;20340;-70
2022/09/20 03:13:27;;;;;;;5.03;4.15;;;;;;;9.27;100.00;98455.25;4415625;32;20340;-71
2022/09/20 03:16:07;;;;;;;5.22;4.20;;;;;;;9.87;100.00;98543.91;4415787;32;20134;-70
2022/09/20 03:18:55;;;;;;;4.47;3.42;;;;;;;9.61;100.00;98535.63;4422392;32;20371;-69
2022/09/20 03:21:55;;;;;;;5.18;3.75;;;;;;;9.34;100.00;98498.81;4430788;32;20076;-70
2022/09/20 03:24:42;;;;;;;6.57;3.92;;;;;;;9.62;100.00;98513.03;4395651;32;20069;-70
2022/09/20 03:27:33;;;;;;;4.70;3.70;;;;;;;9.54;100.00;98540.38;4381122;32;20086;-70
2022/09/20 03:30:18;;;;;;;6.85;3.60;;;;;;;9.63;100.00;98545.03;4383423;32;20054;-70
2022/09/20 03:32:59;;;;;;;7.05;4.40;;;;;;;9.56;100.00;98554.41;4383918;32;20027;-70
2022/09/20 03:35:46;;;;;;;5.03;4.47;;;;;;;9.32;100.00;98495.59;4354521;32;20091;-69
2022/09/20 03:38:50;;;;;;;4.72;3.87;;;;;;;9.14;100.00;98483.31;4361691;32;20057;-70
2022/09/20 03:41:27;;;;;;;8.43;4.30;;;;;;;9.57;100.00;98561.37;4328860;33;20435;-68
2022/09/20 03:44:00;;;;;;;9.57;4.55;;;;;;;9.62;100.00;98553.34;4339816;33;20079;-68
2022/09/20 03:46:30;;;;;;;6.72;4.12;;;;;;;9.34;100.00;98506.87;4326314;33;20070;-69
2022/09/20 03:49:27;;;;;;;4.32;3.90;;;;;;;9.89;100.00;98557.91;4309402;33;20362;-68
2022/09/20 03:52:13;;;;;;;8.75;4.87;;;;;;;9.76;100.00;98554.56;4311154;33;20041;-69
2022/09/20 03:54:51;;;;;;;9.23;5.40;;;;;;;9.71;100.00;98551.03;4316721;33;20175;-72
2022/09/20 03:57:17;;;;;;;6.53;4.12;;;;;;;9.67;100.00;98556.09;4327006;33;20048;-69
2022/09/20 04:00:19;;;;;;;5.43;4.80;;;;;;;9.75;100.00;98557.53;4340173;33;20062;-69
2022/09/20 04:02:58;;;;;;;6.03;5.10;;;;;;;9.80;100.00;98544.91;4338993;33;20125;-69
2022/09/20 04:05:40;;;;;;;8.18;5.03;;;;;;;9.50;100.00;98523.16;4338799;32;20081;-69
2022/09/20 04:08:46;;;;;;;5.05;4.35;;;;;;;9.79;100.00;98562.09;4337925;33;20449;-69
2022/09/20 04:11:30;;;;;;;9.02;4.82;;;;;;;9.74;100.00;98572.81;4326365;33;20040;-69
2022/09/20 04:14:39;;;;;;;6.47;5.18;;;;;;;9.68;100.00;98568.47;4339882;33;20167;-69
2022/09/20 04:17:56;;;;;;;9.65;6.05;;;;;;;9.78;100.00;98579.31;4354714;32;20102;-69
2022/09/20 04:20:34;;;;;;;11.02;6.25;;;;;;;9.48;100.00;98563.72;4327796;32;20316;-69
2022/09/20 04:23:19;;;;;;;8.85;5.65;;;;;;;9.74;100.00;98583.59;4413789;32;20035;-68
2022/09/20 04:25:47;;;;;;;11.55;6.32;;;;;;;9.64;100.00;98578.13;4381860;32;20079;-69
2022/09/20 04:28:35;;;;;;;7.32;5.72;;;;;;;9.42;100.00;98578.97;4384859;32;20100;-69
2022/09/20 04:31:17;;;;;;;6.82;5.47;;;;;;;9.31;100.00;98582.63;4382105;32;20068;-69
2022/09/20 04:33:49;;;;;;;10.43;6.82;;;;;;;9.32;100.00;98580.72;4383831;32;20065;-69
2022/09/20 04:36:55;;;;;;;12.20;6.72;;;;;;;9.34;100.00;98581.31;4376389;32;20056;-69
2022/09/20 04:39:31;;;;;;;9.70;6.22;;;;;;;9.42;100.00;98575.47;4380707;32;20128;-68
2022/09/20 04:42:16;;;;;;;6.78;5.62;;;;;;;9.20;100.00;98554.81;4383922;32;20069;-69
2022/09/20 04:45:06;;;;;;;9.75;6.68;;;;;;;9.64;100.00;98583.50;4382621;32;20043;-69
2022/09/20 04:47:57;;;;;;;9.23;6.25;;;;;;;9.58;100.00;98595.25;4383759;32;20076;-69
2022/09/20 04:50:35;;;;;;;8.55;5.95;;;;;;;9.71;100.00;98586.78;4382496;32;20118;-69
2022/09/20 04:53:39;;;;;;;7.30;5.45;;;;;;;9.70;100.00;98593.25;4385216;32;20085;-68
2022/09/20 04:56:38;;;;;;;7.78;6.07;;;;;;;9.56;100.00;98594.72;4392239;32;20056;-69
2022/09/20 04:59:09;;;;;;;15.38;5.97;;;;;;;9.43;100.00;98599.41;4415219;32;20045;-72
2022/09/20 05:02:02;;;;;;;9.10;6.62;;;;;;;9.61;100.00;98602.81;4426049;32;20049;-69
2022/09/20 05:05:01;;;;;;;8.18;6.65;;;;;;;9.69;100.00;98596.97;4428201;32;20076;-69
2022/09/20 05:08:10;;;;;;;11.32;6.75;;;;;;;9.81;100.00;98605.72;4429346;32;20027;-69
2022/09/20 05:11:29;;;;;;;15.45;6.95;;;;;;;9.54;100.00;98565.41;4427062;32;20111;-70
2022/09/20 05:14:12;;;;;;;8.23;6.22;;;;;;;9.70;100.00;98619.28;4416488;32;20063;-71
2022/09/20 05:16:57;;;;;;;8.85;6.70;;;;;;;9.78;100.00;98616.13;4426333;32;20196;-70
2022/09/20 05:19:35;;;;;;;11.65;7.03;;;;;;;9.92;100.00;98613.84;4426953;32;20022;-71
2022/09/20 05:22:11;;;;;;;7.30;6.15;;;;;;;9.99;100.00;98622.53;4377257;32;20392;-70
2022/09/20 05:25:06;;;;;;;7.97;6.72;;;;;;;9.71;100.00;98626.31;4348832;32;20070;-70
2022/09/20 05:27:41;;;;;;;7.55;5.93;;;;;;;9.80;100.00;98585.25;4350300;32;20078;-70
2022/09/20 05:30:29;;;;;;;7.87;6.20;;;;;;;10.26;100.00;98637.81;4358600;32;20036;-71
2022/09/20 05:33:18;;;;;;;9.40;6.05;;;;;;;9.98;100.00;98632.47;4357728;32;20095;-70
2022/09/20 05:36:12;;;;;;;7.07;6.15;;;;;;;9.77;100.00;98599.19;4356259;32;20127;-72
2022/09/20 05:38:49;;;;;;;10.63;6.10;;;;;;;10.25;100.00;98641.59;4350590;32;20043;-71
2022/09/20 05:41:30;;;;;;;10.45;5.53;;;;;;;10.04;100.00;98630.66;4348565;32;20357;-70
2022/09/20 05:44:11;;;;;;;6.68;5.07;;;;;;;10.01;100.00;98652.66;4349152;32;20350;-77
2022/09/20 05:46:58;;;;;;;7.47;5.28;;;;;;;9.90;100.00;98608.72;4347185;32;20352;-77
2022/09/20 05:49:46;;;;;;;8.40;5.35;;;;;;;9.75;100.00;98584.41;4347509;32;20765;-76
2022/09/20 05:52:27;;;;;;;6.82;6.07;;;;;;;9.96;100.00;98606.91;4352215;32;20044;-77
2022/09/20 05:54:54;;;;;;;7.47;5.80;;;;;;;10.16;100.00;98650.13;4385364;32;20368;-77
2022/09/20 05:57:41;;;;;;;9.00;6.65;;;;;;;10.09;100.00;98649.50;4411948;32;20072;-76
2022/09/20 06:00:13;;;;;;;10.80;7.12;;;;;;;10.13;100.00;98656.03;4411826;32;20409;-77
2022/09/20 06:02:59;;;;;;;13.70;6.65;;;;;;;10.04;100.00;98667.50;4414176;32;20097;-76
2022/09/20 06:05:38;;;;;;;8.98;6.22;;;;;;;10.08;100.00;98674.78;4387529;32;20073;-76
2022/09/20 06:08:10;;;;;;;6.47;5.43;;;;;;;10.09;100.00;98678.31;4375810;32;20081;-75
2022/09/20 06:11:16;;;;;;;11.73;6.60;;;;;;;9.73;100.00;98624.16;4403121;32;20042;-75
2022/09/20 06:14:14;;;;;;;7.78;6.37;;;;;;;9.98;100.00;98669.31;4383164;32;20050;-75
2022/09/20 06:17:20;;;;;;;11.43;6.03;;;;;;;9.89;100.00;98670.84;4405312;32;20098;-76
2022/09/20 06:19:59;;;;;;;5.87;5.28;;;;;;;9.91;100.00;98666.84;4404717;32;20085;-76
2022/09/20 06:22:38;;;;;;;7.35;5.85;;;;;;;9.78;100.00;98675.28;4404795;32;20034;-76
2022/09/20 06:25:07;;;;;;;8.18;6.47;;;;;;;9.67;100.00;98658.25;4404679;32;20353;-76
2022/09/20 06:27:44;;;;;;;8.48;6.32;;;;;;;9.53;100.00;98673.16;4401675;32;20056;-75
2022/09/20 06:30:30;;;;;;;12.43;6.15;;;;;;;9.57;100.00;98644.69;4399685;32;20068;-76
2022/09/20 06:33:02;;;;;;;8.55;6.25;;;;;;;9.79;100.00;98688.47;4403624;32;20452;-75
2022/09/20 06:35:35;;;;;;;8.40;6.05;;;;;;;9.66;100.00;98642.38;4408124;32;20046;-75
2022/09/20 06:41:27;;;;;;;6.82;5.62;;;;;;;10.05;100.00;98675.31;4387143;32;20387;-77
2022/09/20 06:44:00;;;;;;;10.82;6.37;;;;;;;9.87;100.00;98678.34;4389532;32;20098;-75
2022/09/20 06:46:29;;;;;;;8.77;6.18;;;;;;;9.89;100.00;98633.19;4389471;32;20127;-76
2022/09/20 06:48:56;;;;;;;8.82;6.45;;;;;;;10.28;100.00;98692.19;4383798;32;20077;-76
2022/09/20 06:51:26;;;;;;;13.40;6.43;;;;;;;10.08;100.00;98631.75;4387917;32;20863;-75
2022/09/20 06:53:54;;;;;;;12.63;6.53;;;;;;;10.04;100.00;98654.06;4387956;32;20032;-76
2022/09/20 06:56:25;;;;;;;7.55;5.93;;;;;;;9.79;100.00;98693.84;4396323;32;20384;-75
2022/09/20 06:58:52;;;;;;;11.88;6.28;;;;;;;9.79;100.00;98645.47;4384413;32;20045;-77
2022/09/20 07:01:19;;;;;;;9.07;5.47;;;;;;;10.36;100.00;98689.06;4387847;32;20169;-75
2022/09/20 07:03:46;;;;;;;8.00;6.35;;;;;;;10.34;100.00;98688.50;4384248;32;20051;-74
2022/09/20 07:06:18;;;;;;;8.77;6.47;;;;;;;10.07;100.00;98654.34;4389841;32;20136;-74
2022/09/20 07:08:46;;;;;;;13.32;7.12;;;;;;;10.35;100.00;98700.88;4388489;32;20027;-73
2022/09/20 07:11:16;;;;;;;10.48;5.55;;;;;;;10.16;100.00;98705.78;4386748;32;20039;-79
2022/09/20 07:13:50;;;;;;;11.75;5.87;;;;;;;10.16;100.00;98706.63;4389856;32;20088;-73
2022/09/20 07:16:17;;;;;;;12.18;5.78;;;;;;;9.74;100.00;98653.47;4401747;32;20124;-74
2022/09/20 07:18:44;;;;;;;9.02;6.60;;;;;;;10.27;100.00;98709.41;4407550;32;20119;-78
2022/09/20 07:21:16;;;;;;;11.57;6.43;;;;;;;10.34;100.00;98720.81;4425424;32;20037;-75
2022/09/20 07:23:47;;;;;;;12.63;6.62;;;;;;;9.71;100.00;98637.84;4430037;32;20034;-75
2022/09/20 07:26:16;;;;;;;14.57;6.30;;;;;;;10.39;100.00;98728.91;4430630;32;20082;-74
2022/09/20 07:28:44;;;;;;;12.07;6.87;;;;;;;10.80;100.00;98713.09;4429649;32;20111;-76
2022/09/20 07:31:11;;;;;;;8.25;5.65;;;;;;;10.76;100.00;98689.63;4429921;32;20099;-74
2022/09/20 07:33:37;;;;;;;9.20;6.20;;;;;;;10.94;100.00;98726.09;4430423;32;20202;-74
2022/09/20 07:36:04;;;;;;;8.38;5.97;;;;;;;10.71;100.00;98685.03;4430127;32;20107;-75
2022/09/20 07:38:31;;;;;;;7.80;6.55;;;;;;;10.70;100.00;98729.97;4430678;32;20042;-74
2022/09/20 07:41:01;;;;;;;6.68;5.95;;;;;;;10.67;100.00;98722.44;4425725;32;20063;-78
2022/09/20 07:43:29;;;;;;;12.50;6.07;;;;;;;10.71;100.00;98725.41;4427097;32;20085;-75
2022/09/20 07:45:58;;;;;;;10.35;6.85;;;;;;;10.86;100.00;98722.81;4427651;32;20469;-76
2022/09/20 07:48:28;;;;;;;10.25;6.47;;;;;;;11.03;100.00;98729.94;4428412;32;20088;-74
2022/09/20 07:51:01;;;;;;;10.25;6.60;;;;;;;10.92;100.00;98714.78;4427628;32;20392;-77
2022/09/20 07:53:28;;;;;;;24.60;15.05;;;;;;;10.60;100.00;98654.50;4426885;32;20127;-75
2022/09/20 07:55:59;;;;;;;8.77;6.25;;;;;;;11.45;100.00;98723.69;4428350;32;20038;-76
2022/09/20 07:58:26;;;;;;;9.18;6.10;;;;;;;11.51;100.00;98733.44;4428632;32;20052;-75
2022/09/20 08:00:58;;;;;;;10.23;5.95;;;;;;;11.12;100.00;98682.59;4428409;32;20052;-79
2022/09/20 08:03:25;;;;;;;16.85;6.25;;;;;;;11.43;100.00;98739.31;4429322;32;20494;-75
2022/09/20 08:06:07;;;;;;;10.25;5.75;;;;;;;11.20;100.00;98689.34;4430284;32;20042;-75
2022/09/20 08:08:42;;;;;;;7.35;4.85;;;;;;;11.63;100.00;98744.81;4427663;32;20038;-76
2022/09/20 08:11:14;;;;;;;10.05;6.05;;;;;;;12.02;100.00;98737.41;4429519;32;20054;-75
2022/09/20 08:13:49;;;;;;;7.60;4.85;;;;;;;12.06;100.00;98749.28;4429705;32;20041;-75
2022/09/20 08:16:16;;;;;;;13.18;4.80;;;;;;;11.71;100.00;98710.31;4430028;32;20417;-75
2022/09/20 08:18:48;;;;;;;5.75;4.85;;;;;;;12.13;100.00;98750.66;4426202;32;20072;-75
2022/09/20 08:21:15;;;;;;;9.70;5.03;;;;;;;11.31;100.00;98607.44;4428333;32;20698;-75
2022/09/20 08:23:43;;;;;;;7.30;4.85;;;;;;;11.43;100.00;98666.53;4429877;32;20038;-75
2022/09/20 08:26:12;;;;;;;8.57;5.90;;;;;;;11.86;100.00;98701.47;4422889;32;20375;-74
2022/09/20 08:28:40;;;;;;;7.40;4.37;;;;;;;12.38;100.00;98745.56;4421115;32;20084;-77
2022/09/20 08:31:15;;;;;;;8.05;5.00;;;;;;;12.18;100.00;98709.38;4421313;32;20082;-75
2022/09/20 08:33:42;;;;;;;11.77;4.95;;;;;;;12.08;100.00;98693.19;4410167;32;20047;-76
2022/09/20 08:36:14;;;;;;;8.55;5.00;;;;;;;12.23;100.00;98690.47;4410787;32;20060;-75
2022/09/20 08:38:40;;;;;;;8.63;5.25;;;;;;;12.38;100.00;98748.25;4403553;32;20068;-76
2022/09/20 08:41:21;;;;;;;6.15;4.25;;;;;;;12.69;100.00;98758.00;4398721;32;20870;-76
2022/09/20 08:44:01;;;;;;;7.03;4.80;;;;;;;12.29;100.00;98754.19;4414008;32;20053;-75
2022/09/20 08:46:38;;;;;;;11.52;6.28;;;;;;;12.45;100.00;98708.31;4412240;32;20099;-75
2022/09/20 08:49:07;;;;;;;7.93;5.03;;;;;;;12.70;100.00;98751.53;4414227;32;20068;-74
2022/09/20 08:51:37;;;;;;;7.35;4.68;;;;;;;12.18;100.00;98720.16;4407801;32;20034;-74
2022/09/20 08:54:06;;;;;;;9.20;4.35;;;;;;;12.11;100.00;98758.22;4410783;32;20032;-77
2022/09/20 08:56:36;;;;;;;6.55;4.22;;;;;;;12.08;100.00;98720.97;4411563;32;20076;-74
2022/09/20 08:59:04;;;;;;;4.57;3.62;;;;;;;12.25;100.00;98731.50;4413897;32;20042;-74
2022/09/20 09:01:32;;;;;;;5.55;4.12;;;;;;;12.57;100.00;98770.94;4412176;32;20059;-74
2022/09/20 09:04:22;;;;;;;4.85;4.15;;;;;;;12.51;100.00;98731.56;4415720;32;20039;-78
2022/09/20 09:06:51;;;;;;;9.18;4.50;;;;;;;12.75;100.00;98766.09;4431926;32;20115;-74
2022/09/20 09:09:25;;;;;;;6.12;4.25;;;;;;;12.76;100.00;98751.53;4430432;32;20042;-74
2022/09/20 09:11:53;;;;;;;8.18;5.30;;;;;;;12.27;100.00;98723.97;4411837;32;20026;-75
2022/09/20 09:17:19;;;;;;;6.35;4.90;;;;;;;12.60;100.00;98762.31;4413682;32;20396;-79
2022/09/20 09:19:50;;;;;;;12.45;5.05;;;;;;;12.55;100.00;98724.50;4413557;32;20059;-75
2022/09/20 09:22:39;;;;;;;7.30;4.25;;;;;;;12.80;100.00;98728.31;4413979;32;20034;-74
2022/09/20 09:25:05;;;;;;;4.47;3.83;;;;;;;13.28;100.00;98769.31;4412352;32;20056;-77
2022/09/20 09:27:33;;;;;;;10.93;4.25;;;;;;;13.19;100.00;98722.28;4413419;32;20027;-75
2022/09/20 09:30:00;;;;;;;6.37;4.05;;;;;;;13.54;100.00;98750.31;4414837;32;20041;-75
2022/09/20 09:32:30;;;;;;;6.22;4.03;;;;;;;13.41;100.00;98719.28;4414761;32;20085;-75
2022/09/20 09:35:22;;;;;;;7.30;4.95;;;;;;;13.70;100.00;98760.00;4398580;32;20035;-77
2022/09/20 09:37:54;;;;;;;8.43;5.72;;;;;;;13.48;100.00;98775.78;4399207;32;20043;-75
2022/09/20 09:40:21;;;;;;;5.70;4.57;;;;;;;13.36;100.00;98763.34;4399374;32;20423;-79
2022/09/20 09:42:53;;;;;;;11.80;5.10;;;;;;;13.46;100.00;98770.62;4396985;32;20063;-75
2022/09/20 09:45:25;;;;;;;6.60;4.93;;;;;;;13.18;100.00;98731.47;4399056;32;20452;-75
2022/09/20 09:47:53;;;;;;;6.00;5.07;;;;;;;13.53;100.00;98778.44;4398034;32;20060;-74
2022/09/20 09:50:32;;;;;;;7.10;5.43;;;;;;;13.07;100.00;98730.69;4397250;32;20413;-75
2022/09/20 09:53:09;;;;;;;10.10;4.50;;;;;;;12.95;100.00;98733.66;4398607;32;20055;-75
2022/09/20 09:55:55;;;;;;;9.40;4.68;;;;;;;12.78;100.00;98733.13;4398944;32;20369;-75
2022/09/20 09:58:27;;;;;;;5.75;4.22;;;;;;;13.24;100.00;98795.25;4399263;32;20064;-75
2022/09/20 10:00:57;;;;;;;6.57;4.60;;;;;;;12.97;100.00;98746.91;4399323;32;20048;-75
2022/09/20 10:03:54;;;;;;;7.22;4.85;;;;;;;13.01;100.00;98738.00;4398903;32;20058;-75
2022/09/20 10:06:44;;;;;;;5.22;4.28;;;;;;;13.39;100.00;98792.56;4408819;32;20417;-75
2022/09/20 10:09:35;;;;;;;4.87;4.28;;;;;;;12.89;100.00;98783.38;4414735;32;20034;-75
2022/09/20 10:12:23;;;;;;;10.10;5.70;;;;;;;12.92;100.00;98792.84;4416523;32;20045;-74
2022/09/20 10:15:10;;;;;;;6.53;4.68;;;;;;;13.07;100.00;98790.97;4415761;32;20076;-74
2022/09/20 10:17:39;;;;;;;7.53;5.72;;;;;;;12.94;100.00;98801.50;4392029;32;20072;-74
2022/09/20 10:20:30;;;;;;;11.80;5.30;;;;;;;12.79;100.00;98759.09;4414194;32;20371;-73
2022/09/20 10:23:22;;;;;;;6.87;4.70;;;;;;;13.09;100.00;98802.28;4415904;32;20039;-74
2022/09/20 10:26:04;;;;;;;10.48;5.45;;;;;;;13.21;100.00;98796.63;4413913;32;20162;-74
2022/09/20 10:28:59;;;;;;;7.75;4.57;;;;;;;12.95;100.00;98760.69;4416302;32;20435;-73
2022/09/20 10:32:04;;;;;;;7.40;4.18;;;;;;;13.30;100.00;98804.97;4416974;32;20058;-74
2022/09/20 10:34:49;;;;;;;4.57;4.03;;;;;;;13.25;100.00;98808.50;4395769;32;20041;-75
2022/09/20 10:37:32;;;;;;;3.75;3.45;;;;;;;12.47;100.00;98760.16;4398209;32;20486;-74
2022/09/20 10:40:15;;;;;;;6.75;4.60;;;;;;;12.91;100.00;98808.28;4398446;32;20049;-75
2022/09/20 10:46:00;;;;;;;4.57;4.18;;;;;;;12.52;100.00;98769.09;4398943;32;20049;-76
2022/09/20 10:48:36;;;;;;;9.55;3.87;;;;;;;12.66;100.00;98769.34;4398373;32;20096;-75
2022/09/20 10:51:38;;;;;;;4.65;3.80;;;;;;;12.75;100.00;98725.56;4397755;32;20045;-78
2022/09/20 10:54:05;;;;;;;;;;;;;;;13.38;100.00;98820.69;4398990;32;20425;-74
2022/09/20 10:57:08;;;;;;;7.65;4.57;;;;;;;13.48;100.00;98821.75;4397973;32;20291;-75
2022/09/20 11:00:03;;;;;;;6.03;5.22;;;;;;;13.33;100.00;98825.28;4326118;33;20049;-75
2022/09/20 11:02:45;;;;;;;6.10;5.10;;;;;;;13.24;100.00;98827.69;4327853;33;20032;-74
2022/09/20 11:05:38;;;;;;;7.47;4.30;;;;;;;13.04;100.00;98791.50;4336715;33;20049;-74
2022/09/20 11:08:10;;;;;;;8.02;4.40;;;;;;;12.72;100.00;98835.81;4350568;32;20023;-74
2022/09/20 11:10:57;;;;;;;10.13;4.80;;;;;;;12.99;100.00;98788.00;4355539;32;20109;-74
2022/09/20 11:13:31;;;;;;;5.18;4.45;;;;;;;13.03;100.00;98784.47;4356804;32;20133;-74
2022/09/20 11:16:21;;;;;;;8.15;5.12;;;;;;;13.42;100.00;98834.47;4355441;32;20032;-75
2022/09/20 11:18:58;;;;;;;6.10;4.75;;;;;;;13.58;100.00;98832.56;4354978;32;20067;-74
2022/09/20 11:21:42;;;;;;;7.90;4.72;;;;;;;13.23;100.00;98799.84;4355439;32;20051;-74
2022/09/20 11:24:32;;;;;;;9.18;5.60;;;;;;;13.54;100.00;98832.28;4354377;32;20068;-75
2022/09/20 11:27:17;;;;;;;7.37;5.00;;;;;;;13.18;100.00;98834.19;4363478;32;20052;-74
2022/09/20 11:29:52;;;;;;;6.95;5.43;;;;;;;12.90;100.00;98795.81;4369349;32;20414;-73
2022/09/20 11:32:44;;;;;;;7.22;4.93;;;;;;;13.13;100.00;98799.06;4371651;32;20047;-75
2022/09/20 11:35:18;;;;;;;6.35;4.70;;;;;;;13.83;100.00;98834.34;4367147;32;20143;-75
2022/09/20 11:38:23;;;;;;;4.87;3.90;;;;;;;13.99;100.00;98833.25;4418359;32;20364;-74
2022/09/20 11:40:59;;;;;;;8.50;4.07;;;;;;;14.27;100.00;98844.47;4370321;32;20106;-74
2022/09/20 11:43:29;;;;;;;4.82;3.30;;;;;;;13.95;100.00;98798.88;4297422;33;20446;-75
2022/09/20 11:46:02;;;;;;;9.88;4.45;;;;;;;14.31;100.00;98845.56;4296676;33;20045;-74
2022/09/20 11:48:51;;;;;;;5.85;4.20;;;;;;;14.41;100.00;98801.34;4266942;33;20042;-74
2022/09/20 11:51:26;;;;;;;4.28;3.35;;;;;;;14.61;100.00;98824.00;4253040;33;20073;-73
2022/09/20 11:54:17;;;;;;;4.22;3.42;;;;;;;15.02;100.00;98842.69;4253010;33;20111;-77
2022/09/20 11:56:51;;;;;;;15.75;3.95;;;;;;;15.14;100.00;98793.50;4254276;33;20060;-74
2022/09/20 11:59:37;;;;;;;5.00;3.42;;;;;;;15.21;100.00;98802.91;4255040;33;20081;-74
2022/09/20 12:02:16;;;;;;;3.53;3.22;;;;;;;15.80;100.00;98840.88;4254518;33;20538;-75
2022/09/20 12:04:46;;;;;;;18.85;3.45;;;;;;;15.09;100.00;98805.19;4254618;33;20050;-74
2022/09/20 12:07:22;;;;;;;4.57;3.70;;;;;;;14.56;100.00;98813.16;4252344;33;20035;-75
2022/09/20 12:10:09;;;;;;;7.82;3.28;;;;;;;14.62;100.00;98860.84;4225007;33;20060;-75
2022/09/20 12:13:06;;;;;;;12.70;4.43;;;;;;;14.81;100.00;98848.25;4225455;33;20027;-77
2022/09/20 12:15:37;;;;;;;6.32;3.15;;;;;;;14.81;100.00;98842.81;4270260;33;20463;-74
2022/09/20 12:18:07;;;;;;;8.23;3.10;;;;;;;15.16;100.00;98842.84;4310324;33;20045;-75
2022/09/20 12:20:33;;;;;;;3.05;2.85;;;;;;;15.01;100.00;98832.91;4323810;33;20033;-74
2022/09/20 12:23:41;;;;;;;6.70;2.72;;;;;;;14.78;100.00;98832.56;4326221;33;20045;-74
2022/09/20 12:26:19;;;;;;;2.50;2.35;;;;;;;15.00;100.00;98834.03;4325380;33;20028;-73
2022/09/20 12:28:50;;;;;;;6.68;3.47;;;;;;;15.13;100.00;98841.50;4342634;33;20382;-73
2022/09/20 12:31:30;;;;;;;3.60;3.10;;;;;;;15.08;100.00;98833.41;4355753;32;20028;-76
2022/09/20 12:34:08;;;;;;;4.60;2.60;;;;;;;14.64;100.00;98837.00;4355634;32;20079;-74